sensor_id;sensor_type;location;lat;lon;timestamp;temperature;humidity
1137;DHT22;557;48.466;7.950;2022-12-18T00:02:44;-5.60;99.90
1137;DHT22;557;48.466;7.950;2022-12-18T00:05:30;-5.60;99.90
1137;DHT22;557;48.466;7.950;2022-12-18T00:08:15;-5.50;99.90
1137;DHT22;557;48.466;7.950;2022-12-18T00:11:03;-5.30;99.90
1137;DHT22;557;48.466;7.950;2022-12-18T00:13:52;-5.20;99.90
1137;DHT22;557;48.466;7.950;2022-12-18T00:16:39;-5.30;99.90
1137;DHT22;557;48.466;7.950;2022-12-18T00:19:25;-5.30;99.90
1137;DHT22;557;48.466;7.950;2022-12-18T00:22:10;-5.10;99.90
1137;DHT22;557;48.466;7.950;2022-12-18T00:24:56;-5.00;99.90
1137;DHT22;557;48.466;7.950;2022-12-18T00:27:41;-5.00;99.90
1137;DHT22;557;48.466;7.950;2022-12-18T00:30:28;-4.90;99.90
1137;DHT22;557;48.466;7.950;2022-12-18T00:33:14;-5.00;99.90
1137;DHT22;557;48.466;7.950;2022-12-18T00:36:00;-5.10;99.90
1137;DHT22;557;48.466;7.950;2022-12-18T00:38:47;-5.00;99.90
1137;DHT22;557;48.466;7.950;2022-12-18T00:41:33;-5.00;99.90
1137;DHT22;557;48.466;7.950;2022-12-18T00:44:37;-5.10;99.90
1137;DHT22;557;48.466;7.950;2022-12-18T00:47:24;-5.00;99.90
1137;DHT22;557;48.466;7.950;2022-12-18T00:50:10;-5.10;99.90
1137;DHT22;557;48.466;7.950;2022-12-18T00:52:55;-5.00;99.90
1137;DHT22;557;48.466;7.950;2022-12-18T00:55:42;-5.10;99.90
1137;DHT22;557;48.466;7.950;2022-12-18T00:58:28;-5.30;99.90
1137;DHT22;557;48.466;7.950;2022-12-18T01:01:14;-5.30;99.90
1137;DHT22;557;48.466;7.950;2022-12-18T01:04:02;-5.40;99.90
1137;DHT22;557;48.466;7.950;2022-12-18T01:06:48;-5.50;99.90
1137;DHT22;557;48.466;7.950;2022-12-18T01:09:34;-5.60;99.90
1137;DHT22;557;48.466;7.950;2022-12-18T01:12:19;-5.60;99.90
1137;DHT22;557;48.466;7.950;2022-12-18T01:15:06;-5.60;99.90
1137;DHT22;557;48.466;7.950;2022-12-18T01:17:53;-5.50;99.90
1137;DHT22;557;48.466;7.950;2022-12-18T01:20:40;-5.40;99.90
1137;DHT22;557;48.466;7.950;2022-12-18T01:23:26;-5.40;99.90
1137;DHT22;557;48.466;7.950;2022-12-18T01:26:14;-5.50;99.90
1137;DHT22;557;48.466;7.950;2022-12-18T01:28:59;-5.70;99.90
1137;DHT22;557;48.466;7.950;2022-12-18T01:31:45;-6.00;99.90
1137;DHT22;557;48.466;7.950;2022-12-18T01:34:30;-6.10;99.90
1137;DHT22;557;48.466;7.950;2022-12-18T01:37:17;-6.20;99.90
1137;DHT22;557;48.466;7.950;2022-12-18T01:40:04;-6.00;99.90
1137;DHT22;557;48.466;7.950;2022-12-18T01:42:51;-5.90;99.90
1137;DHT22;557;48.466;7.950;2022-12-18T01:45:38;-5.80;99.90
1137;DHT22;557;48.466;7.950;2022-12-18T01:48:23;-5.90;99.90
1137;DHT22;557;48.466;7.950;2022-12-18T01:51:10;-6.00;99.90
1137;DHT22;557;48.466;7.950;2022-12-18T01:53:58;-6.00;99.90
1137;DHT22;557;48.466;7.950;2022-12-18T01:56:44;-5.90;99.90
1137;DHT22;557;48.466;7.950;2022-12-18T01:59:31;-5.80;99.90
1137;DHT22;557;48.466;7.950;2022-12-18T02:02:19;-5.70;99.90
1137;DHT22;557;48.466;7.950;2022-12-18T02:05:06;-5.80;99.90
1137;DHT22;557;48.466;7.950;2022-12-18T02:08:00;-5.90;99.90
1137;DHT22;557;48.466;7.950;2022-12-18T02:10:56;-5.90;99.90
1137;DHT22;557;48.466;7.950;2022-12-18T02:13:49;-6.10;99.90
1137;DHT22;557;48.466;7.950;2022-12-18T02:16:42;-6.00;99.90
1137;DHT22;557;48.466;7.950;2022-12-18T02:19:46;-5.90;99.90
1137;DHT22;557;48.466;7.950;2022-12-18T02:22:40;-5.90;99.90
1137;DHT22;557;48.466;7.950;2022-12-18T02:25:52;-5.90;99.90
1137;DHT22;557;48.466;7.950;2022-12-18T02:28:46;-6.00;99.90
1137;DHT22;557;48.466;7.950;2022-12-18T02:31:36;-6.10;99.90
1137;DHT22;557;48.466;7.950;2022-12-18T02:34:26;-6.20;99.90
1137;DHT22;557;48.466;7.950;2022-12-18T02:37:17;-6.10;99.90
1137;DHT22;557;48.466;7.950;2022-12-18T02:40:05;-6.10;99.90
1137;DHT22;557;48.466;7.950;2022-12-18T02:42:52;-6.20;99.90
1137;DHT22;557;48.466;7.950;2022-12-18T02:45:46;-6.20;99.90
1137;DHT22;557;48.466;7.950;2022-12-18T02:48:34;-6.20;99.90
1137;DHT22;557;48.466;7.950;2022-12-18T02:51:25;-6.20;99.90
1137;DHT22;557;48.466;7.950;2022-12-18T02:54:21;-6.30;99.90
1137;DHT22;557;48.466;7.950;2022-12-18T02:57:16;-6.30;99.90
1137;DHT22;557;48.466;7.950;2022-12-18T03:00:07;-6.30;99.90
1137;DHT22;557;48.466;7.950;2022-12-18T03:02:58;-6.40;99.90
1137;DHT22;557;48.466;7.950;2022-12-18T03:05:51;-6.30;99.90
1137;DHT22;557;48.466;7.950;2022-12-18T03:08:41;-6.30;99.90
1137;DHT22;557;48.466;7.950;2022-12-18T03:11:31;-6.30;99.90
1137;DHT22;557;48.466;7.950;2022-12-18T03:14:38;-6.30;99.90
1137;DHT22;557;48.466;7.950;2022-12-18T03:17:27;-6.20;99.90
1137;DHT22;557;48.466;7.950;2022-12-18T03:20:16;-6.30;99.90
1137;DHT22;557;48.466;7.950;2022-12-18T03:23:06;-6.20;99.90
1137;DHT22;557;48.466;7.950;2022-12-18T03:25:57;-6.20;99.90
1137;DHT22;557;48.466;7.950;2022-12-18T03:28:48;-6.40;99.90
1137;DHT22;557;48.466;7.950;2022-12-18T03:31:37;-6.50;99.90
1137;DHT22;557;48.466;7.950;2022-12-18T03:34:30;-6.50;99.90
1137;DHT22;557;48.466;7.950;2022-12-18T03:37:17;-6.50;99.90
1137;DHT22;557;48.466;7.950;2022-12-18T03:40:03;-6.50;99.90
1137;DHT22;557;48.466;7.950;2022-12-18T03:42:54;-6.40;99.90
1137;DHT22;557;48.466;7.950;2022-12-18T03:45:48;-6.30;99.90
1137;DHT22;557;48.466;7.950;2022-12-18T03:48:41;-6.30;99.90
1137;DHT22;557;48.466;7.950;2022-12-18T03:51:35;-6.30;99.90
1137;DHT22;557;48.466;7.950;2022-12-18T03:54:23;-6.50;99.90
1137;DHT22;557;48.466;7.950;2022-12-18T03:57:15;-6.60;99.90
1137;DHT22;557;48.466;7.950;2022-12-18T04:00:06;-6.50;99.90
1137;DHT22;557;48.466;7.950;2022-12-18T04:02:55;-6.60;99.90
1137;DHT22;557;48.466;7.950;2022-12-18T04:05:42;-6.60;99.90
1137;DHT22;557;48.466;7.950;2022-12-18T04:08:32;-6.60;99.90
1137;DHT22;557;48.466;7.950;2022-12-18T04:11:19;-6.60;99.90
1137;DHT22;557;48.466;7.950;2022-12-18T04:14:05;-6.60;99.90
1137;DHT22;557;48.466;7.950;2022-12-18T04:16:51;-6.50;99.90
1137;DHT22;557;48.466;7.950;2022-12-18T04:19:36;-6.50;99.90
1137;DHT22;557;48.466;7.950;2022-12-18T04:22:22;-6.50;99.90
1137;DHT22;557;48.466;7.950;2022-12-18T04:25:12;-6.50;99.90
1137;DHT22;557;48.466;7.950;2022-12-18T04:27:58;-6.50;99.90
1137;DHT22;557;48.466;7.950;2022-12-18T04:30:44;-6.50;99.90
1137;DHT22;557;48.466;7.950;2022-12-18T04:33:29;-6.50;99.90
1137;DHT22;557;48.466;7.950;2022-12-18T04:36:16;-6.70;99.90
1137;DHT22;557;48.466;7.950;2022-12-18T04:39:01;-6.70;99.90
1137;DHT22;557;48.466;7.950;2022-12-18T04:41:48;-6.70;99.90
1137;DHT22;557;48.466;7.950;2022-12-18T04:44:34;-6.70;99.90
1137;DHT22;557;48.466;7.950;2022-12-18T04:47:19;-6.80;99.90
1137;DHT22;557;48.466;7.950;2022-12-18T04:50:11;-6.90;99.90
1137;DHT22;557;48.466;7.950;2022-12-18T04:52:57;-6.90;99.90
1137;DHT22;557;48.466;7.950;2022-12-18T04:55:42;-6.90;99.90
1137;DHT22;557;48.466;7.950;2022-12-18T04:58:29;-6.90;99.90
1137;DHT22;557;48.466;7.950;2022-12-18T05:01:16;-6.80;99.90
1137;DHT22;557;48.466;7.950;2022-12-18T05:04:02;-6.90;99.90
1137;DHT22;557;48.466;7.950;2022-12-18T05:06:47;-6.90;99.90
1137;DHT22;557;48.466;7.950;2022-12-18T05:09:33;-6.90;99.90
1137;DHT22;557;48.466;7.950;2022-12-18T05:12:19;-6.90;99.90
1137;DHT22;557;48.466;7.950;2022-12-18T05:15:09;-6.90;99.90
1137;DHT22;557;48.466;7.950;2022-12-18T05:17:55;-6.80;99.90
1137;DHT22;557;48.466;7.950;2022-12-18T05:20:41;-6.70;99.90
1137;DHT22;557;48.466;7.950;2022-12-18T05:23:48;-6.70;99.90
1137;DHT22;557;48.466;7.950;2022-12-18T05:26:34;-6.80;99.90
1137;DHT22;557;48.466;7.950;2022-12-18T05:29:19;-6.90;99.90
1137;DHT22;557;48.466;7.950;2022-12-18T05:32:06;-6.90;99.90
1137;DHT22;557;48.466;7.950;2022-12-18T05:34:52;-6.90;99.90
1137;DHT22;557;48.466;7.950;2022-12-18T05:37:37;-7.10;99.90
1137;DHT22;557;48.466;7.950;2022-12-18T05:40:23;-7.20;99.90
1137;DHT22;557;48.466;7.950;2022-12-18T05:43:09;-7.20;99.90
1137;DHT22;557;48.466;7.950;2022-12-18T05:45:55;-7.10;99.90
1137;DHT22;557;48.466;7.950;2022-12-18T05:48:44;-7.00;99.90
1137;DHT22;557;48.466;7.950;2022-12-18T05:51:39;-7.00;99.90
1137;DHT22;557;48.466;7.950;2022-12-18T05:54:26;-7.00;99.90
1137;DHT22;557;48.466;7.950;2022-12-18T05:57:12;-7.00;99.90
1137;DHT22;557;48.466;7.950;2022-12-18T05:59:58;-7.10;99.90
1137;DHT22;557;48.466;7.950;2022-12-18T06:02:46;-7.10;99.90
1137;DHT22;557;48.466;7.950;2022-12-18T06:05:36;-7.20;99.90
1137;DHT22;557;48.466;7.950;2022-12-18T06:08:22;-7.20;99.90
1137;DHT22;557;48.466;7.950;2022-12-18T06:11:07;-7.20;99.90
1137;DHT22;557;48.466;7.950;2022-12-18T06:13:56;-7.10;99.90
1137;DHT22;557;48.466;7.950;2022-12-18T06:16:42;-7.20;99.90
1137;DHT22;557;48.466;7.950;2022-12-18T06:19:29;-7.30;99.90
1137;DHT22;557;48.466;7.950;2022-12-18T06:22:16;-7.30;99.90
1137;DHT22;557;48.466;7.950;2022-12-18T06:25:02;-7.20;99.90
1137;DHT22;557;48.466;7.950;2022-12-18T06:27:48;-7.20;99.90
1137;DHT22;557;48.466;7.950;2022-12-18T06:30:35;-7.10;99.90
1137;DHT22;557;48.466;7.950;2022-12-18T06:33:21;-7.00;99.90
1137;DHT22;557;48.466;7.950;2022-12-18T06:36:35;-7.00;99.90
1137;DHT22;557;48.466;7.950;2022-12-18T06:39:23;-7.00;99.90
1137;DHT22;557;48.466;7.950;2022-12-18T06:42:09;-6.90;99.90
1137;DHT22;557;48.466;7.950;2022-12-18T06:44:55;-6.80;99.90
1137;DHT22;557;48.466;7.950;2022-12-18T06:47:41;-6.80;99.90
1137;DHT22;557;48.466;7.950;2022-12-18T06:50:27;-6.80;99.90
1137;DHT22;557;48.466;7.950;2022-12-18T06:53:12;-6.90;99.90
1137;DHT22;557;48.466;7.950;2022-12-18T06:56:04;-6.90;99.90
1137;DHT22;557;48.466;7.950;2022-12-18T06:58:50;-6.90;99.90
1137;DHT22;557;48.466;7.950;2022-12-18T07:01:36;-6.80;99.90
1137;DHT22;557;48.466;7.950;2022-12-18T07:04:22;-6.80;99.90
1137;DHT22;557;48.466;7.950;2022-12-18T07:07:07;-6.70;99.90
1137;DHT22;557;48.466;7.950;2022-12-18T07:09:56;-6.70;99.90
1137;DHT22;557;48.466;7.950;2022-12-18T07:12:42;-6.70;99.90
1137;DHT22;557;48.466;7.950;2022-12-18T07:15:28;-6.50;99.90
1137;DHT22;557;48.466;7.950;2022-12-18T07:18:14;-6.40;99.90
1137;DHT22;557;48.466;7.950;2022-12-18T07:21:02;-6.50;99.90
1137;DHT22;557;48.466;7.950;2022-12-18T07:23:48;-6.90;99.90
1137;DHT22;557;48.466;7.950;2022-12-18T07:26:34;-7.20;99.90
1137;DHT22;557;48.466;7.950;2022-12-18T07:29:21;-7.40;99.90
1137;DHT22;557;48.466;7.950;2022-12-18T07:32:07;-7.40;99.90
1137;DHT22;557;48.466;7.950;2022-12-18T07:34:56;-7.40;99.90
1137;DHT22;557;48.466;7.950;2022-12-18T07:37:41;-7.40;99.90
1137;DHT22;557;48.466;7.950;2022-12-18T07:40:27;-7.50;99.90
1137;DHT22;557;48.466;7.950;2022-12-18T07:43:13;-7.50;99.90
1137;DHT22;557;48.466;7.950;2022-12-18T07:46:00;-7.60;99.90
1137;DHT22;557;48.466;7.950;2022-12-18T07:48:46;-7.80;99.90
1137;DHT22;557;48.466;7.950;2022-12-18T07:51:31;-7.90;99.90
1137;DHT22;557;48.466;7.950;2022-12-18T07:54:17;-7.90;99.90
1137;DHT22;557;48.466;7.950;2022-12-18T07:57:02;-7.80;99.90
1137;DHT22;557;48.466;7.950;2022-12-18T07:59:48;-7.70;99.90
1137;DHT22;557;48.466;7.950;2022-12-18T08:02:39;-7.60;99.90
1137;DHT22;557;48.466;7.950;2022-12-18T08:05:24;-7.50;99.90
1137;DHT22;557;48.466;7.950;2022-12-18T08:08:10;-7.40;99.90
1137;DHT22;557;48.466;7.950;2022-12-18T08:10:58;-7.50;99.90
1137;DHT22;557;48.466;7.950;2022-12-18T08:14:16;-7.60;99.90
1137;DHT22;557;48.466;7.950;2022-12-18T08:17:02;-7.60;99.90
1137;DHT22;557;48.466;7.950;2022-12-18T08:19:49;-7.70;99.90
1137;DHT22;557;48.466;7.950;2022-12-18T08:22:39;-7.70;99.90
1137;DHT22;557;48.466;7.950;2022-12-18T08:25:25;-7.60;99.90
1137;DHT22;557;48.466;7.950;2022-12-18T08:28:11;-7.60;99.90
1137;DHT22;557;48.466;7.950;2022-12-18T08:30:57;-7.60;99.90
1137;DHT22;557;48.466;7.950;2022-12-18T08:33:43;-7.60;99.90
1137;DHT22;557;48.466;7.950;2022-12-18T08:36:30;-7.70;99.90
1137;DHT22;557;48.466;7.950;2022-12-18T08:39:16;-7.60;99.90
1137;DHT22;557;48.466;7.950;2022-12-18T08:42:10;-7.50;99.90
1137;DHT22;557;48.466;7.950;2022-12-18T08:45:14;-7.50;99.90
1137;DHT22;557;48.466;7.950;2022-12-18T08:48:00;-7.50;99.90
1137;DHT22;557;48.466;7.950;2022-12-18T08:50:55;-7.30;99.90
1137;DHT22;557;48.466;7.950;2022-12-18T08:53:43;-7.40;99.90
1137;DHT22;557;48.466;7.950;2022-12-18T08:56:29;-7.40;99.90
1137;DHT22;557;48.466;7.950;2022-12-18T08:59:15;-7.30;99.90
1137;DHT22;557;48.466;7.950;2022-12-18T09:02:01;-7.30;99.90
1137;DHT22;557;48.466;7.950;2022-12-18T09:04:47;-7.40;42.20
1137;DHT22;557;48.466;7.950;2022-12-18T09:07:33;-7.50;45.40
1137;DHT22;557;48.466;7.950;2022-12-18T09:10:31;-7.40;44.80
1137;DHT22;557;48.466;7.950;2022-12-18T09:13:18;-7.30;23.20
1137;DHT22;557;48.466;7.950;2022-12-18T09:16:05;-7.20;28.00
1137;DHT22;557;48.466;7.950;2022-12-18T09:18:51;-7.20;32.20
1137;DHT22;557;48.466;7.950;2022-12-18T09:21:38;-7.00;22.80
1137;DHT22;557;48.466;7.950;2022-12-18T09:24:24;-7.10;1.00
1137;DHT22;557;48.466;7.950;2022-12-18T09:27:15;-7.00;1.30
1137;DHT22;557;48.466;7.950;2022-12-18T09:30:00;-7.10;1.00
1137;DHT22;557;48.466;7.950;2022-12-18T09:32:46;-7.30;1.00
1137;DHT22;557;48.466;7.950;2022-12-18T09:35:32;-7.00;30.50
1137;DHT22;557;48.466;7.950;2022-12-18T09:38:18;-6.90;1.00
1137;DHT22;557;48.466;7.950;2022-12-18T09:41:06;-6.50;16.30
1137;DHT22;557;48.466;7.950;2022-12-18T09:43:57;-6.40;1.00
1137;DHT22;557;48.466;7.950;2022-12-18T09:46:46;-6.50;1.00
1137;DHT22;557;48.466;7.950;2022-12-18T09:49:40;-6.50;1.00
1137;DHT22;557;48.466;7.950;2022-12-18T09:52:32;-6.40;1.00
1137;DHT22;557;48.466;7.950;2022-12-18T09:55:24;-6.40;1.00
1137;DHT22;557;48.466;7.950;2022-12-18T09:58:15;-6.50;1.00
1137;DHT22;557;48.466;7.950;2022-12-18T10:01:10;-6.50;1.00
1137;DHT22;557;48.466;7.950;2022-12-18T10:03:57;-6.40;1.00
1137;DHT22;557;48.466;7.950;2022-12-18T10:06:48;-6.40;1.00
1137;DHT22;557;48.466;7.950;2022-12-18T10:09:39;-6.30;1.00
1137;DHT22;557;48.466;7.950;2022-12-18T10:12:32;-6.40;1.00
1137;DHT22;557;48.466;7.950;2022-12-18T10:15:23;-6.20;1.00
1137;DHT22;557;48.466;7.950;2022-12-18T10:18:22;-6.10;1.00
1137;DHT22;557;48.466;7.950;2022-12-18T10:21:15;-5.90;9.50
1137;DHT22;557;48.466;7.950;2022-12-18T10:24:12;-5.60;1.00
1137;DHT22;557;48.466;7.950;2022-12-18T10:27:11;-5.50;1.00
1137;DHT22;557;48.466;7.950;2022-12-18T10:29:58;-5.10;1.00
1137;DHT22;557;48.466;7.950;2022-12-18T10:32:44;-4.80;1.00
1137;DHT22;557;48.466;7.950;2022-12-18T10:35:31;-4.40;1.00
1137;DHT22;557;48.466;7.950;2022-12-18T10:38:22;-4.10;1.00
1137;DHT22;557;48.466;7.950;2022-12-18T10:41:24;-3.90;1.00
1137;DHT22;557;48.466;7.950;2022-12-18T10:44:15;-3.70;1.00
1137;DHT22;557;48.466;7.950;2022-12-18T10:47:04;-3.60;1.00
1137;DHT22;557;48.466;7.950;2022-12-18T10:49:56;-3.50;1.00
1137;DHT22;557;48.466;7.950;2022-12-18T10:52:43;-3.50;1.00
1137;DHT22;557;48.466;7.950;2022-12-18T10:55:33;-3.40;1.00
1137;DHT22;557;48.466;7.950;2022-12-18T10:58:24;-3.30;99.90
1137;DHT22;557;48.466;7.950;2022-12-18T11:01:11;-3.30;1.00
1137;DHT22;557;48.466;7.950;2022-12-18T11:04:04;-3.20;1.00
1137;DHT22;557;48.466;7.950;2022-12-18T11:06:55;-3.10;1.00
1137;DHT22;557;48.466;7.950;2022-12-18T11:09:43;-3.00;1.00
1137;DHT22;557;48.466;7.950;2022-12-18T11:12:29;-3.10;99.90
1137;DHT22;557;48.466;7.950;2022-12-18T11:15:20;-3.10;1.00
1137;DHT22;557;48.466;7.950;2022-12-18T11:18:17;-3.00;1.00
1137;DHT22;557;48.466;7.950;2022-12-18T11:21:07;-3.00;1.00
1137;DHT22;557;48.466;7.950;2022-12-18T11:23:56;-3.00;99.90
1137;DHT22;557;48.466;7.950;2022-12-18T11:26:43;-3.00;99.90
1137;DHT22;557;48.466;7.950;2022-12-18T11:29:32;-3.00;99.90
1137;DHT22;557;48.466;7.950;2022-12-18T11:32:28;-3.10;99.90
1137;DHT22;557;48.466;7.950;2022-12-18T11:35:19;-3.00;99.90
1137;DHT22;557;48.466;7.950;2022-12-18T11:38:12;-2.80;99.90
1137;DHT22;557;48.466;7.950;2022-12-18T11:41:05;-2.70;1.00
1137;DHT22;557;48.466;7.950;2022-12-18T11:43:56;-2.60;99.90
1137;DHT22;557;48.466;7.950;2022-12-18T11:46:49;-2.70;1.00
1137;DHT22;557;48.466;7.950;2022-12-18T11:49:36;-2.70;99.90
1137;DHT22;557;48.466;7.950;2022-12-18T11:52:26;-2.70;1.00
1137;DHT22;557;48.466;7.950;2022-12-18T11:55:16;-2.80;99.90
1137;DHT22;557;48.466;7.950;2022-12-18T11:58:11;-2.70;99.90
1137;DHT22;557;48.466;7.950;2022-12-18T12:01:10;-2.60;99.90
1137;DHT22;557;48.466;7.950;2022-12-18T12:07:31;-2.60;1.00
1137;DHT22;557;48.466;7.950;2022-12-18T12:10:32;-2.60;1.00
1137;DHT22;557;48.466;7.950;2022-12-18T12:13:29;-2.80;99.90
1137;DHT22;557;48.466;7.950;2022-12-18T12:16:29;-2.90;1.00
1137;DHT22;557;48.466;7.950;2022-12-18T12:19:34;-3.10;99.90
1137;DHT22;557;48.466;7.950;2022-12-18T12:22:30;-3.20;35.30
1137;DHT22;557;48.466;7.950;2022-12-18T12:25:27;-3.30;99.90
1137;DHT22;557;48.466;7.950;2022-12-18T12:28:21;-3.30;99.90
1137;DHT22;557;48.466;7.950;2022-12-18T12:31:19;-3.30;1.00
1137;DHT22;557;48.466;7.950;2022-12-18T12:34:17;-3.30;1.00
1137;DHT22;557;48.466;7.950;2022-12-18T12:37:16;-3.30;1.00
1137;DHT22;557;48.466;7.950;2022-12-18T12:40:05;-3.20;1.00
1137;DHT22;557;48.466;7.950;2022-12-18T12:42:55;-3.10;1.00
1137;DHT22;557;48.466;7.950;2022-12-18T12:46:05;-3.10;1.00
1137;DHT22;557;48.466;7.950;2022-12-18T12:48:55;-3.10;1.00
1137;DHT22;557;48.466;7.950;2022-12-18T12:51:45;-3.10;1.00
1137;DHT22;557;48.466;7.950;2022-12-18T12:54:32;-3.10;1.00
1137;DHT22;557;48.466;7.950;2022-12-18T12:57:33;-2.90;1.00
1137;DHT22;557;48.466;7.950;2022-12-18T13:00:20;-2.90;1.00
1137;DHT22;557;48.466;7.950;2022-12-18T13:03:13;-2.90;1.00
1137;DHT22;557;48.466;7.950;2022-12-18T13:06:07;-2.80;1.00
1137;DHT22;557;48.466;7.950;2022-12-18T13:09:00;-2.80;1.00
1137;DHT22;557;48.466;7.950;2022-12-18T13:11:47;-2.70;1.00
1137;DHT22;557;48.466;7.950;2022-12-18T13:14:50;-2.70;1.00
1137;DHT22;557;48.466;7.950;2022-12-18T13:17:36;-2.80;1.00
1137;DHT22;557;48.466;7.950;2022-12-18T13:20:49;-2.80;1.00
1137;DHT22;557;48.466;7.950;2022-12-18T13:23:38;-2.70;1.00
1137;DHT22;557;48.466;7.950;2022-12-18T13:26:34;-2.60;1.00
1137;DHT22;557;48.466;7.950;2022-12-18T13:29:42;-2.50;1.00
1137;DHT22;557;48.466;7.950;2022-12-18T13:32:27;-2.40;1.00
1137;DHT22;557;48.466;7.950;2022-12-18T13:35:39;-2.40;1.00
1137;DHT22;557;48.466;7.950;2022-12-18T13:38:33;-2.50;1.00
1137;DHT22;557;48.466;7.950;2022-12-18T13:41:24;-2.50;1.00
1137;DHT22;557;48.466;7.950;2022-12-18T13:44:20;-2.40;1.00
1137;DHT22;557;48.466;7.950;2022-12-18T13:47:31;-2.40;1.00
1137;DHT22;557;48.466;7.950;2022-12-18T13:50:29;-2.40;1.00
1137;DHT22;557;48.466;7.950;2022-12-18T13:53:21;-2.40;1.00
1137;DHT22;557;48.466;7.950;2022-12-18T13:56:07;-2.30;1.00
1137;DHT22;557;48.466;7.950;2022-12-18T13:59:16;-2.30;1.00
1137;DHT22;557;48.466;7.950;2022-12-18T14:02:12;-2.30;1.00
1137;DHT22;557;48.466;7.950;2022-12-18T14:04:58;-2.40;1.00
1137;DHT22;557;48.466;7.950;2022-12-18T14:07:48;-2.40;1.00
1137;DHT22;557;48.466;7.950;2022-12-18T14:10:35;-2.50;1.00
1137;DHT22;557;48.466;7.950;2022-12-18T14:13:24;-2.50;1.00
1137;DHT22;557;48.466;7.950;2022-12-18T14:16:14;-2.50;1.00
1137;DHT22;557;48.466;7.950;2022-12-18T14:19:01;-2.50;1.00
1137;DHT22;557;48.466;7.950;2022-12-18T14:21:47;-2.60;1.00
1137;DHT22;557;48.466;7.950;2022-12-18T14:24:34;-2.70;1.00
1137;DHT22;557;48.466;7.950;2022-12-18T14:27:22;-2.80;1.00
1137;DHT22;557;48.466;7.950;2022-12-18T14:30:24;-2.90;1.00
1137;DHT22;557;48.466;7.950;2022-12-18T14:33:17;-3.00;1.00
1137;DHT22;557;48.466;7.950;2022-12-18T14:36:04;-3.20;1.00
1137;DHT22;557;48.466;7.950;2022-12-18T14:38:52;-3.30;1.00
1137;DHT22;557;48.466;7.950;2022-12-18T14:41:39;-3.40;1.00
1137;DHT22;557;48.466;7.950;2022-12-18T14:44:25;-3.50;1.00
1137;DHT22;557;48.466;7.950;2022-12-18T14:47:14;-3.60;1.00
1137;DHT22;557;48.466;7.950;2022-12-18T14:50:02;-3.70;1.00
1137;DHT22;557;48.466;7.950;2022-12-18T14:52:47;-3.80;1.00
1137;DHT22;557;48.466;7.950;2022-12-18T14:55:33;-3.90;1.00
1137;DHT22;557;48.466;7.950;2022-12-18T14:58:19;-3.90;1.00
1137;DHT22;557;48.466;7.950;2022-12-18T15:01:05;-4.10;1.00
1137;DHT22;557;48.466;7.950;2022-12-18T15:03:53;-4.20;12.30
1137;DHT22;557;48.466;7.950;2022-12-18T15:06:45;-4.20;21.60
1137;DHT22;557;48.466;7.950;2022-12-18T15:09:31;-4.20;33.20
1137;DHT22;557;48.466;7.950;2022-12-18T15:12:26;-4.30;45.80
1137;DHT22;557;48.466;7.950;2022-12-18T15:15:45;-4.30;48.10
1137;DHT22;557;48.466;7.950;2022-12-18T15:18:33;-4.40;66.70
1137;DHT22;557;48.466;7.950;2022-12-18T15:21:20;-4.50;65.30
1137;DHT22;557;48.466;7.950;2022-12-18T15:24:17;-4.50;87.10
1137;DHT22;557;48.466;7.950;2022-12-18T15:27:04;-4.50;96.90
1137;DHT22;557;48.466;7.950;2022-12-18T15:30:21;-4.50;93.30
1137;DHT22;557;48.466;7.950;2022-12-18T15:33:20;-4.60;99.90
1137;DHT22;557;48.466;7.950;2022-12-18T15:36:10;-4.60;99.90
1137;DHT22;557;48.466;7.950;2022-12-18T15:38:57;-4.60;99.90
1137;DHT22;557;48.466;7.950;2022-12-18T15:41:45;-4.70;99.90
1137;DHT22;557;48.466;7.950;2022-12-18T15:44:44;-4.70;99.90
1137;DHT22;557;48.466;7.950;2022-12-18T15:47:30;-4.60;99.90
1137;DHT22;557;48.466;7.950;2022-12-18T15:50:16;-4.60;99.90
1137;DHT22;557;48.466;7.950;2022-12-18T15:53:08;-4.60;99.90
1137;DHT22;557;48.466;7.950;2022-12-18T15:56:01;-4.60;99.90
1137;DHT22;557;48.466;7.950;2022-12-18T15:59:09;-4.70;99.90
1137;DHT22;557;48.466;7.950;2022-12-18T16:01:55;-4.70;99.90
1137;DHT22;557;48.466;7.950;2022-12-18T16:04:44;-4.70;99.90
1137;DHT22;557;48.466;7.950;2022-12-18T16:07:31;-4.70;99.90
1137;DHT22;557;48.466;7.950;2022-12-18T16:10:16;-4.70;99.90
1137;DHT22;557;48.466;7.950;2022-12-18T16:13:02;-4.70;99.90
1137;DHT22;557;48.466;7.950;2022-12-18T16:15:49;-4.70;99.90
1137;DHT22;557;48.466;7.950;2022-12-18T16:18:35;-4.70;99.90
1137;DHT22;557;48.466;7.950;2022-12-18T16:21:20;-4.70;99.90
1137;DHT22;557;48.466;7.950;2022-12-18T16:24:15;-4.70;99.90
1137;DHT22;557;48.466;7.950;2022-12-18T16:27:01;-4.60;99.90
1137;DHT22;557;48.466;7.950;2022-12-18T16:29:47;-4.60;99.90
1137;DHT22;557;48.466;7.950;2022-12-18T16:32:35;-4.60;99.90
1137;DHT22;557;48.466;7.950;2022-12-18T16:35:21;-4.50;99.90
1137;DHT22;557;48.466;7.950;2022-12-18T16:38:06;-4.40;99.90
1137;DHT22;557;48.466;7.950;2022-12-18T16:40:52;-4.50;99.90
1137;DHT22;557;48.466;7.950;2022-12-18T16:43:56;-4.40;99.90
1137;DHT22;557;48.466;7.950;2022-12-18T16:46:42;-4.40;99.90
1137;DHT22;557;48.466;7.950;2022-12-18T16:49:31;-4.30;99.90
1137;DHT22;557;48.466;7.950;2022-12-18T16:52:17;-4.40;99.90
1137;DHT22;557;48.466;7.950;2022-12-18T16:55:04;-4.40;99.90
1137;DHT22;557;48.466;7.950;2022-12-18T16:57:51;-4.40;99.90
1137;DHT22;557;48.466;7.950;2022-12-18T17:00:37;-4.40;99.90
1137;DHT22;557;48.466;7.950;2022-12-18T17:03:24;-4.30;99.90
1137;DHT22;557;48.466;7.950;2022-12-18T17:06:19;-4.30;99.90
1137;DHT22;557;48.466;7.950;2022-12-18T17:09:07;-4.40;99.90
1137;DHT22;557;48.466;7.950;2022-12-18T17:11:54;-4.30;99.90
1137;DHT22;557;48.466;7.950;2022-12-18T17:14:39;-4.40;99.90
1137;DHT22;557;48.466;7.950;2022-12-18T17:17:25;-4.40;99.90
1137;DHT22;557;48.466;7.950;2022-12-18T17:20:11;-4.50;99.90
1137;DHT22;557;48.466;7.950;2022-12-18T17:22:59;-4.50;99.90
1137;DHT22;557;48.466;7.950;2022-12-18T17:25:45;-4.70;99.90
1137;DHT22;557;48.466;7.950;2022-12-18T17:28:34;-4.70;99.90
1137;DHT22;557;48.466;7.950;2022-12-18T17:31:23;-4.70;99.90
1137;DHT22;557;48.466;7.950;2022-12-18T17:34:10;-4.60;99.90
1137;DHT22;557;48.466;7.950;2022-12-18T17:36:56;-4.50;99.90
1137;DHT22;557;48.466;7.950;2022-12-18T17:39:43;-4.60;99.90
1137;DHT22;557;48.466;7.950;2022-12-18T17:42:31;-4.50;99.90
1137;DHT22;557;48.466;7.950;2022-12-18T17:45:16;-4.40;99.90
1137;DHT22;557;48.466;7.950;2022-12-18T17:48:02;-4.30;99.90
1137;DHT22;557;48.466;7.950;2022-12-18T17:50:48;-4.20;99.90
1137;DHT22;557;48.466;7.950;2022-12-18T17:53:35;-4.30;99.90
1137;DHT22;557;48.466;7.950;2022-12-18T17:56:24;-4.30;99.90
1137;DHT22;557;48.466;7.950;2022-12-18T17:59:10;-4.30;99.90
1137;DHT22;557;48.466;7.950;2022-12-18T18:01:56;-4.20;99.90
1137;DHT22;557;48.466;7.950;2022-12-18T18:04:41;-4.30;99.90
1137;DHT22;557;48.466;7.950;2022-12-18T18:07:27;-4.30;99.90
1137;DHT22;557;48.466;7.950;2022-12-18T18:10:13;-4.30;99.90
1137;DHT22;557;48.466;7.950;2022-12-18T18:13:00;-4.30;99.90
1137;DHT22;557;48.466;7.950;2022-12-18T18:16:04;-4.20;99.90
1137;DHT22;557;48.466;7.950;2022-12-18T18:18:49;-4.10;99.90
1137;DHT22;557;48.466;7.950;2022-12-18T18:21:38;-4.20;99.90
1137;DHT22;557;48.466;7.950;2022-12-18T18:24:24;-4.10;99.90
1137;DHT22;557;48.466;7.950;2022-12-18T18:27:09;-4.10;99.90
1137;DHT22;557;48.466;7.950;2022-12-18T18:29:56;-4.20;99.90
1137;DHT22;557;48.466;7.950;2022-12-18T18:32:43;-4.10;99.90
1137;DHT22;557;48.466;7.950;2022-12-18T18:35:29;-4.20;99.90
1137;DHT22;557;48.466;7.950;2022-12-18T18:38:15;-4.40;99.90
1137;DHT22;557;48.466;7.950;2022-12-18T18:41:02;-4.40;99.90
1137;DHT22;557;48.466;7.950;2022-12-18T18:43:48;-4.50;99.90
1137;DHT22;557;48.466;7.950;2022-12-18T18:46:36;-4.50;99.90
1137;DHT22;557;48.466;7.950;2022-12-18T18:49:27;-4.50;99.90
1137;DHT22;557;48.466;7.950;2022-12-18T18:52:13;-4.50;99.90
1137;DHT22;557;48.466;7.950;2022-12-18T18:55:00;-4.50;99.90